sensor_id;sensor_type;location;lat;lon;timestamp;P1;durP1;ratioP1;P2;durP2;ratioP2
51174;SDS011;37240;50.104;20.010;2023-05-07T08:00:21;5.43;;;2.25;;
51174;SDS011;37240;50.104;20.010;2023-05-07T08:05:22;4.35;;;2.05;;
51174;SDS011;37240;50.104;20.010;2023-05-07T08:10:23;3.83;;;2.38;;
51174;SDS011;37240;50.104;20.010;2023-05-07T08:15:23;9.68;;;5.30;;
51174;SDS011;37240;50.104;20.010;2023-05-07T08:20:24;2.97;;;2.70;;
51174;SDS011;37240;50.104;20.010;2023-05-07T08:25:24;2.90;;;2.70;;
51174;SDS011;37240;50.104;20.010;2023-05-07T08:56:17;5.40;;;3.25;;
51174;SDS011;37240;50.104;20.010;2023-05-07T09:01:17;5.75;;;3.50;;
51174;SDS011;37240;50.104;20.010;2023-05-07T09:06:18;6.70;;;3.75;;
51174;SDS011;37240;50.104;20.010;2023-05-07T09:11:22;3.03;;;2.83;;
51174;SDS011;37240;50.104;20.010;2023-05-07T09:16:23;3.10;;;2.53;;
51174;SDS011;37240;50.104;20.010;2023-05-07T09:21:24;3.38;;;2.97;;
51174;SDS011;37240;50.104;20.010;2023-05-07T09:26:25;4.25;;;3.20;;
51174;SDS011;37240;50.104;20.010;2023-05-07T09:31:25;2.72;;;2.53;;
51174;SDS011;37240;50.104;20.010;2023-05-07T09:36:26;3.40;;;3.03;;
51174;SDS011;37240;50.104;20.010;2023-05-07T09:41:27;5.65;;;3.40;;
51174;SDS011;37240;50.104;20.010;2023-05-07T09:46:30;4.13;;;2.67;;
51174;SDS011;37240;50.104;20.010;2023-05-07T09:51:43;3.08;;;2.78;;
51174;SDS011;37240;50.104;20.010;2023-05-07T09:56:48;3.80;;;3.42;;
51174;SDS011;37240;50.104;20.010;2023-05-07T10:01:49;3.80;;;3.50;;
51174;SDS011;37240;50.104;20.010;2023-05-07T10:06:51;8.18;;;3.97;;
51174;SDS011;37240;50.104;20.010;2023-05-07T10:11:52;3.92;;;3.40;;
51174;SDS011;37240;50.104;20.010;2023-05-07T10:16:54;6.05;;;3.80;;
51174;SDS011;37240;50.104;20.010;2023-05-07T10:21:55;5.07;;;3.80;;
51174;SDS011;37240;50.104;20.010;2023-05-07T10:26:59;8.88;;;4.75;;
51174;SDS011;37240;50.104;20.010;2023-05-07T10:37:18;8.38;;;3.00;;
51174;SDS011;37240;50.104;20.010;2023-05-07T10:42:19;6.65;;;3.83;;
51174;SDS011;37240;50.104;20.010;2023-05-07T10:47:19;2.67;;;2.47;;
51174;SDS011;37240;50.104;20.010;2023-05-07T10:52:21;4.63;;;4.05;;
51174;SDS011;37240;50.104;20.010;2023-05-07T11:08:01;3.42;;;3.15;;
51174;SDS011;37240;50.104;20.010;2023-05-07T11:13:02;3.70;;;2.80;;
51174;SDS011;37240;50.104;20.010;2023-05-07T11:18:02;9.38;;;3.15;;
51174;SDS011;37240;50.104;20.010;2023-05-07T11:23:03;3.55;;;2.30;;
51174;SDS011;37240;50.104;20.010;2023-05-07T11:28:05;2.10;;;2.00;;
51174;SDS011;37240;50.104;20.010;2023-05-07T11:33:08;3.30;;;3.00;;
51174;SDS011;37240;50.104;20.010;2023-05-07T11:38:10;5.00;;;2.60;;
51174;SDS011;37240;50.104;20.010;2023-05-07T11:43:11;3.40;;;2.00;;
51174;SDS011;37240;50.104;20.010;2023-05-07T11:48:12;5.60;;;1.92;;
51174;SDS011;37240;50.104;20.010;2023-05-07T11:53:13;2.50;;;2.30;;
51174;SDS011;37240;50.104;20.010;2023-05-07T11:58:20;2.80;;;2.60;;
51174;SDS011;37240;50.104;20.010;2023-05-07T12:03:22;1.90;;;1.80;;
51174;SDS011;37240;50.104;20.010;2023-05-07T12:08:22;2.97;;;2.38;;
51174;SDS011;37240;50.104;20.010;2023-05-07T12:13:24;4.28;;;2.80;;
51174;SDS011;37240;50.104;20.010;2023-05-07T12:18:25;4.00;;;1.95;;
51174;SDS011;37240;50.104;20.010;2023-05-07T12:23:26;3.70;;;2.90;;
51174;SDS011;37240;50.104;20.010;2023-05-07T12:28:27;3.40;;;2.60;;
51174;SDS011;37240;50.104;20.010;2023-05-07T12:33:28;3.38;;;2.17;;
51174;SDS011;37240;50.104;20.010;2023-05-07T12:38:32;4.18;;;2.58;;
51174;SDS011;37240;50.104;20.010;2023-05-07T12:43:35;4.57;;;3.30;;
51174;SDS011;37240;50.104;20.010;2023-05-07T12:48:37;3.17;;;2.95;;
51174;SDS011;37240;50.104;20.010;2023-05-07T12:53:43;2.83;;;2.63;;
51174;SDS011;37240;50.104;20.010;2023-05-07T12:58:43;5.20;;;2.70;;
51174;SDS011;37240;50.104;20.010;2023-05-07T13:03:47;2.30;;;2.10;;
51174;SDS011;37240;50.104;20.010;2023-05-07T13:08:48;2.85;;;2.60;;
51174;SDS011;37240;50.104;20.010;2023-05-07T13:13:49;3.20;;;2.95;;
51174;SDS011;37240;50.104;20.010;2023-05-07T13:18:49;5.35;;;3.72;;
51174;SDS011;37240;50.104;20.010;2023-05-07T13:23:50;7.13;;;2.88;;
51174;SDS011;37240;50.104;20.010;2023-05-07T13:28:50;2.50;;;2.30;;
51174;SDS011;37240;50.104;20.010;2023-05-07T13:33:51;3.05;;;2.65;;
51174;SDS011;37240;50.104;20.010;2023-05-07T13:38:52;2.75;;;2.50;;
51174;SDS011;37240;50.104;20.010;2023-05-07T13:43:52;2.88;;;2.65;;
51174;SDS011;37240;50.104;20.010;2023-05-07T13:48:53;5.88;;;2.60;;
51174;SDS011;37240;50.104;20.010;2023-05-07T13:53:53;2.70;;;2.50;;
51174;SDS011;37240;50.104;20.010;2023-05-07T13:58:54;3.97;;;2.88;;
51174;SDS011;37240;50.104;20.010;2023-05-07T14:03:55;7.70;;;3.95;;
51174;SDS011;37240;50.104;20.010;2023-05-07T14:08:56;4.70;;;3.53;;
51174;SDS011;37240;50.104;20.010;2023-05-07T14:13:56;5.40;;;3.60;;
51174;SDS011;37240;50.104;20.010;2023-05-07T14:18:57;6.13;;;3.78;;
51174;SDS011;37240;50.104;20.010;2023-05-07T14:23:57;8.38;;;3.75;;
51174;SDS011;37240;50.104;20.010;2023-05-07T14:28:58;4.65;;;3.63;;
51174;SDS011;37240;50.104;20.010;2023-05-07T14:33:58;5.88;;;3.90;;
51174;SDS011;37240;50.104;20.010;2023-05-07T14:38:59;3.40;;;3.10;;
51174;SDS011;37240;50.104;20.010;2023-05-07T14:43:59;15.35;;;3.70;;
51174;SDS011;37240;50.104;20.010;2023-05-07T14:49:01;13.88;;;5.03;;
51174;SDS011;37240;50.104;20.010;2023-05-07T14:54:02;4.63;;;3.55;;
51174;SDS011;37240;50.104;20.010;2023-05-07T14:59:03;6.35;;;4.20;;
51174;SDS011;37240;50.104;20.010;2023-05-07T15:04:04;4.40;;;3.33;;
51174;SDS011;37240;50.104;20.010;2023-05-07T15:09:04;8.10;;;4.55;;
51174;SDS011;37240;50.104;20.010;2023-05-07T15:14:05;3.65;;;3.35;;
51174;SDS011;37240;50.104;20.010;2023-05-07T15:19:05;8.50;;;4.03;;
51174;SDS011;37240;50.104;20.010;2023-05-07T15:24:06;25.98;;;4.82;;
51174;SDS011;37240;50.104;20.010;2023-05-07T15:29:07;6.05;;;4.22;;
51174;SDS011;37240;50.104;20.010;2023-05-07T15:34:07;5.45;;;4.85;;
51174;SDS011;37240;50.104;20.010;2023-05-07T15:39:08;5.22;;;4.68;;
51174;SDS011;37240;50.104;20.010;2023-05-07T15:44:08;13.65;;;4.60;;
51174;SDS011;37240;50.104;20.010;2023-05-07T15:49:09;6.97;;;3.90;;
51174;SDS011;37240;50.104;20.010;2023-05-07T15:54:09;5.20;;;4.00;;
51174;SDS011;37240;50.104;20.010;2023-05-07T15:59:10;6.85;;;4.55;;
51174;SDS011;37240;50.104;20.010;2023-05-07T16:04:10;8.45;;;4.40;;
51174;SDS011;37240;50.104;20.010;2023-05-07T16:09:11;7.32;;;4.88;;
51174;SDS011;37240;50.104;20.010;2023-05-07T16:14:12;7.57;;;4.00;;
51174;SDS011;37240;50.104;20.010;2023-05-07T16:19:13;6.30;;;4.10;;
51174;SDS011;37240;50.104;20.010;2023-05-07T16:24:13;6.18;;;4.72;;
51174;SDS011;37240;50.104;20.010;2023-05-07T16:29:14;6.85;;;4.72;;
51174;SDS011;37240;50.104;20.010;2023-05-07T16:34:15;12.20;;;6.18;;
51174;SDS011;37240;50.104;20.010;2023-05-07T16:39:15;6.95;;;5.45;;
51174;SDS011;37240;50.104;20.010;2023-05-07T16:44:16;6.50;;;5.40;;
51174;SDS011;37240;50.104;20.010;2023-05-07T16:49:16;7.72;;;5.60;;
51174;SDS011;37240;50.104;20.010;2023-05-07T16:54:17;10.52;;;5.93;;
51174;SDS011;37240;50.104;20.010;2023-05-07T16:59:18;10.70;;;6.18;;
51174;SDS011;37240;50.104;20.010;2023-05-07T17:04:18;9.60;;;6.22;;
51174;SDS011;37240;50.104;20.010;2023-05-07T17:09:19;8.90;;;5.63;;
51174;SDS011;37240;50.104;20.010;2023-05-07T17:14:19;8.55;;;4.75;;
51174;SDS011;37240;50.104;20.010;2023-05-07T17:19:20;14.40;;;6.15;;
51174;SDS011;37240;50.104;20.010;2023-05-07T17:24:20;13.93;;;6.10;;
51174;SDS011;37240;50.104;20.010;2023-05-07T17:29:21;13.02;;;5.90;;
51174;SDS011;37240;50.104;20.010;2023-05-07T17:34:21;9.95;;;5.55;;
51174;SDS011;37240;50.104;20.010;2023-05-07T17:39:24;15.45;;;6.68;;
51174;SDS011;37240;50.104;20.010;2023-05-07T17:44:25;13.73;;;6.20;;
51174;SDS011;37240;50.104;20.010;2023-05-07T17:49:25;15.00;;;7.05;;
51174;SDS011;37240;50.104;20.010;2023-05-07T17:54:26;11.18;;;6.95;;
51174;SDS011;37240;50.104;20.010;2023-05-07T17:59:27;10.38;;;6.97;;
51174;SDS011;37240;50.104;20.010;2023-05-07T18:04:28;11.07;;;6.97;;
51174;SDS011;37240;50.104;20.010;2023-05-07T18:09:28;11.95;;;7.75;;
51174;SDS011;37240;50.104;20.010;2023-05-07T18:14:29;11.68;;;7.25;;
51174;SDS011;37240;50.104;20.010;2023-05-07T18:19:29;13.65;;;7.72;;
51174;SDS011;37240;50.104;20.010;2023-05-07T18:24:30;17.17;;;7.95;;
51174;SDS011;37240;50.104;20.010;2023-05-07T18:29:30;15.45;;;8.20;;
51174;SDS011;37240;50.104;20.010;2023-05-07T18:34:31;14.57;;;8.27;;
51174;SDS011;37240;50.104;20.010;2023-05-07T18:39:31;26.50;;;8.50;;
51174;SDS011;37240;50.104;20.010;2023-05-07T18:44:33;17.60;;;7.88;;
51174;SDS011;37240;50.104;20.010;2023-05-07T18:49:34;14.23;;;8.13;;
51174;SDS011;37240;50.104;20.010;2023-05-07T18:54:35;12.27;;;7.85;;
51174;SDS011;37240;50.104;20.010;2023-05-07T18:59:35;11.30;;;7.13;;
51174;SDS011;37240;50.104;20.010;2023-05-07T19:04:36;15.40;;;8.98;;
51174;SDS011;37240;50.104;20.010;2023-05-07T19:09:37;13.60;;;8.57;;
51174;SDS011;37240;50.104;20.010;2023-05-07T19:14:39;16.02;;;8.27;;
51174;SDS011;37240;50.104;20.010;2023-05-07T19:19:40;13.65;;;8.85;;
51174;SDS011;37240;50.104;20.010;2023-05-07T19:24:41;16.13;;;9.43;;
51174;SDS011;37240;50.104;20.010;2023-05-07T19:29:42;11.75;;;7.95;;
51174;SDS011;37240;50.104;20.010;2023-05-07T19:34:42;9.23;;;7.05;;
51174;SDS011;37240;50.104;20.010;2023-05-07T19:39:43;9.48;;;6.55;;
51174;SDS011;37240;50.104;20.010;2023-05-07T19:44:43;11.93;;;7.07;;
51174;SDS011;37240;50.104;20.010;2023-05-07T19:49:44;8.43;;;5.95;;
51174;SDS011;37240;50.104;20.010;2023-05-07T19:54:44;9.95;;;6.47;;
51174;SDS011;37240;50.104;20.010;2023-05-07T19:59:45;12.55;;;5.75;;
51174;SDS011;37240;50.104;20.010;2023-05-07T20:04:46;9.38;;;5.13;;
51174;SDS011;37240;50.104;20.010;2023-05-07T20:09:46;11.40;;;6.10;;
51174;SDS011;37240;50.104;20.010;2023-05-07T20:14:47;7.03;;;4.95;;
51174;SDS011;37240;50.104;20.010;2023-05-07T20:19:47;9.95;;;5.35;;
51174;SDS011;37240;50.104;20.010;2023-05-07T20:24:48;8.82;;;5.88;;
51174;SDS011;37240;50.104;20.010;2023-05-07T20:29:49;11.95;;;5.53;;
51174;SDS011;37240;50.104;20.010;2023-05-07T20:34:50;11.38;;;6.10;;
51174;SDS011;37240;50.104;20.010;2023-05-07T20:39:50;8.75;;;4.55;;
51174;SDS011;37240;50.104;20.010;2023-05-07T20:44:51;7.22;;;5.20;;
51174;SDS011;37240;50.104;20.010;2023-05-07T20:49:52;8.27;;;5.10;;
51174;SDS011;37240;50.104;20.010;2023-05-07T20:54:53;6.70;;;5.25;;
51174;SDS011;37240;50.104;20.010;2023-05-07T20:59:54;10.27;;;4.97;;
51174;SDS011;37240;50.104;20.010;2023-05-07T21:04:54;7.20;;;5.00;;
51174;SDS011;37240;50.104;20.010;2023-05-07T21:09:55;8.57;;;5.30;;
51174;SDS011;37240;50.104;20.010;2023-05-07T21:14:55;8.00;;;5.18;;
51174;SDS011;37240;50.104;20.010;2023-05-07T21:19:56;5.10;;;4.60;;
51174;SDS011;37240;50.104;20.010;2023-05-07T21:24:56;4.95;;;4.25;;
51174;SDS011;37240;50.104;20.010;2023-05-07T21:29:57;5.45;;;3.92;;
51174;SDS011;37240;50.104;20.010;2023-05-07T21:34:58;6.45;;;4.47;;
51174;SDS011;37240;50.104;20.010;2023-05-07T21:39:59;9.52;;;3.83;;
51174;SDS011;37240;50.104;20.010;2023-05-07T21:44:59;4.95;;;3.95;;
51174;SDS011;37240;50.104;20.010;2023-05-07T21:50:00;5.78;;;4.22;;
51174;SDS011;37240;50.104;20.010;2023-05-07T21:55:00;4.68;;;3.05;;
51174;SDS011;37240;50.104;20.010;2023-05-07T22:00:01;6.15;;;3.58;;
51174;SDS011;37240;50.104;20.010;2023-05-07T22:05:02;5.47;;;3.70;;
51174;SDS011;37240;50.104;20.010;2023-05-07T22:10:03;5.72;;;4.05;;
51174;SDS011;37240;50.104;20.010;2023-05-07T22:15:04;5.28;;;3.90;;
51174;SDS011;37240;50.104;20.010;2023-05-07T22:20:06;5.00;;;3.85;;
51174;SDS011;37240;50.104;20.010;2023-05-07T22:25:07;4.40;;;3.58;;
51174;SDS011;37240;50.104;20.010;2023-05-07T22:30:08;8.20;;;4.60;;
51174;SDS011;37240;50.104;20.010;2023-05-07T22:35:09;6.75;;;4.30;;
51174;SDS011;37240;50.104;20.010;2023-05-07T22:40:10;8.35;;;4.28;;
51174;SDS011;37240;50.104;20.010;2023-05-07T22:45:10;5.88;;;4.32;;
51174;SDS011;37240;50.104;20.010;2023-05-07T22:50:11;6.43;;;4.30;;
51174;SDS011;37240;50.104;20.010;2023-05-07T22:55:12;4.72;;;4.00;;
51174;SDS011;37240;50.104;20.010;2023-05-07T23:00:12;8.02;;;3.72;;
51174;SDS011;37240;50.104;20.010;2023-05-07T23:05:13;7.35;;;4.38;;
51174;SDS011;37240;50.104;20.010;2023-05-07T23:10:13;9.68;;;4.30;;
51174;SDS011;37240;50.104;20.010;2023-05-07T23:15:17;12.50;;;5.13;;
51174;SDS011;37240;50.104;20.010;2023-05-07T23:20:18;6.65;;;4.85;;
51174;SDS011;37240;50.104;20.010;2023-05-07T23:25:19;5.85;;;4.57;;
51174;SDS011;37240;50.104;20.010;2023-05-07T23:30:20;9.48;;;4.75;;
51174;SDS011;37240;50.104;20.010;2023-05-07T23:35:20;7.78;;;4.53;;
51174;SDS011;37240;50.104;20.010;2023-05-07T23:40:21;7.75;;;5.10;;
51174;SDS011;37240;50.104;20.010;2023-05-07T23:45:21;13.10;;;4.47;;
51174;SDS011;37240;50.104;20.010;2023-05-07T23:50:22;8.25;;;4.53;;
51174;SDS011;37240;50.104;20.010;2023-05-07T23:55:23;7.80;;;4.75;;
